createdAt,value
2018-07-16T00:01:10.563Z,69.90
2018-07-16T00:03:40.532Z,70.00
2018-07-16T00:06:10.171Z,69.70
2018-07-16T00:08:39.639Z,70.80
2018-07-16T00:11:09.117Z,73.90
2018-07-16T00:13:38.287Z,76.60
2018-07-16T00:16:07.769Z,74.20
2018-07-16T00:18:37.563Z,72.60
2018-07-16T00:21:07.021Z,72.10
2018-07-16T00:23:36.717Z,71.50
2018-07-16T00:26:06.607Z,71.90
2018-07-16T00:28:36.124Z,71.50
2018-07-16T00:31:06.238Z,70.00
2018-07-16T00:33:36.881Z,72.40
2018-07-16T00:36:07.371Z,72.80
2018-07-16T00:38:37.051Z,74.40
2018-07-16T00:41:06.720Z,73.00
2018-07-16T00:43:36.142Z,70.50
2018-07-16T00:46:05.934Z,72.30
2018-07-16T00:48:35.251Z,69.90
2018-07-16T00:51:04.610Z,70.80
2018-07-16T00:53:34.369Z,69.60
2018-07-16T00:56:04.037Z,69.80
2018-07-16T00:58:33.267Z,70.50
2018-07-16T01:01:03.206Z,70.20
2018-07-16T01:03:33.029Z,70.10
2018-07-16T01:06:02.642Z,70.10
2018-07-16T01:08:32.666Z,71.00
2018-07-16T01:11:02.013Z,71.30
2018-07-16T01:13:31.732Z,71.80
2018-07-16T01:16:01.470Z,72.20
2018-07-16T01:18:31.872Z,72.60
2018-07-16T01:21:02.362Z,71.70
2018-07-16T01:23:31.896Z,70.40
2018-07-16T01:26:02.164Z,69.90
2018-07-16T01:28:31.506Z,69.20
2018-07-16T01:31:00.704Z,69.90
2018-07-16T01:33:30.617Z,70.40
2018-07-16T01:36:00.087Z,71.10
2018-07-16T01:38:29.835Z,72.50
2018-07-16T01:40:59.234Z,74.90
2018-07-16T01:43:28.879Z,82.20
2018-07-16T01:45:58.547Z,89.60
2018-07-16T01:50:56.994Z,96.10
2018-07-16T01:53:26.551Z,97.00
2018-07-16T01:55:56.117Z,95.80
2018-07-16T01:58:25.332Z,99.90
2018-07-16T02:00:59.060Z,99.90
2018-07-16T02:05:59.178Z,95.70
2018-07-16T02:08:29.290Z,91.80
2018-07-16T02:10:59.069Z,90.00
2018-07-16T02:13:28.742Z,88.20
2018-07-16T02:15:58.951Z,86.60
2018-07-16T02:18:28.557Z,86.50
2018-07-16T02:20:57.908Z,87.90
2018-07-16T02:23:27.130Z,92.90
2018-07-16T02:25:56.606Z,94.10
2018-07-16T02:28:25.752Z,95.10
2018-07-16T02:30:55.338Z,92.90
2018-07-16T02:33:24.731Z,91.50
2018-07-16T02:35:54.430Z,91.90
2018-07-16T02:38:24.070Z,93.40
2018-07-16T02:40:53.459Z,96.30
2018-07-16T02:43:23.070Z,93.50
2018-07-16T02:45:52.647Z,89.90
2018-07-16T02:48:22.036Z,87.70
2018-07-16T02:50:51.349Z,92.30
2018-07-16T02:53:20.730Z,89.10
2018-07-16T02:55:50.481Z,88.70
2018-07-16T02:58:19.681Z,89.70
2018-07-16T03:00:49.090Z,94.50
2018-07-16T03:03:18.275Z,94.00
2018-07-16T03:05:48.135Z,92.50
2018-07-16T03:08:17.501Z,92.60
2018-07-16T03:10:47.157Z,92.20
2018-07-16T03:13:16.620Z,94.30
2018-07-16T03:15:45.817Z,93.30
2018-07-16T03:18:15.112Z,93.60
2018-07-16T03:20:44.402Z,92.10
2018-07-16T03:23:13.937Z,93.20
2018-07-16T03:25:43.577Z,93.70
2018-07-16T03:28:12.766Z,92.60
2018-07-16T03:30:41.888Z,92.10
2018-07-16T03:33:11.087Z,93.40
2018-07-16T03:35:40.786Z,92.10
2018-07-16T03:38:10.025Z,88.70
2018-07-16T03:40:39.946Z,85.60
2018-07-16T03:43:09.281Z,92.50
2018-07-16T03:45:38.782Z,90.70
2018-07-16T03:48:08.651Z,90.10
2018-07-16T03:50:38.022Z,88.00
2018-07-16T03:53:07.528Z,91.00
2018-07-16T03:55:37.032Z,93.70
2018-07-16T03:58:06.656Z,97.40
2018-07-16T04:00:37.202Z,99.90
2018-07-16T04:03:07.019Z,95.90
2018-07-16T04:05:36.417Z,93.00
2018-07-16T04:08:06.702Z,90.40
2018-07-16T04:10:36.934Z,92.40
2018-07-16T04:13:06.597Z,95.20
2018-07-16T04:15:35.958Z,93.40
2018-07-16T04:18:10.056Z,96.40
2018-07-16T04:20:39.719Z,94.00
2018-07-16T04:23:08.966Z,93.80
2018-07-16T04:25:38.482Z,96.30
2018-07-16T04:28:09.089Z,98.40
2018-07-16T04:30:38.521Z,96.90
2018-07-16T04:33:08.429Z,96.20
2018-07-16T04:35:38.112Z,95.70
2018-07-16T04:38:07.825Z,96.80
2018-07-16T04:40:37.169Z,95.70
2018-07-16T04:43:06.680Z,94.20
2018-07-16T04:45:36.608Z,92.70
2018-07-16T04:48:05.947Z,89.50
2018-07-16T04:50:35.321Z,88.40
2018-07-16T04:53:05.438Z,88.20
2018-07-16T04:55:34.983Z,85.10
2018-07-16T04:58:05.781Z,85.30
2018-07-16T05:00:35.202Z,84.20
2018-07-16T05:03:04.834Z,84.90
2018-07-16T05:05:34.234Z,85.60
2018-07-16T05:08:03.816Z,86.50
2018-07-16T05:10:33.526Z,86.10
2018-07-16T05:13:03.226Z,83.40
2018-07-16T05:15:32.597Z,83.20
2018-07-16T05:18:02.217Z,82.90
2018-07-16T05:20:31.652Z,80.50
2018-07-16T05:23:01.554Z,79.20
2018-07-16T05:25:31.380Z,81.60
2018-07-16T05:28:01.149Z,83.20
2018-07-16T05:30:30.778Z,82.60
2018-07-16T05:33:00.250Z,81.40
2018-07-16T05:35:30.052Z,84.00
2018-07-16T05:37:59.641Z,81.70
2018-07-16T05:40:29.930Z,85.20
2018-07-16T05:42:59.607Z,84.30
2018-07-16T05:45:28.818Z,83.70
2018-07-16T05:47:58.494Z,84.00
2018-07-16T05:50:27.982Z,83.70
2018-07-16T05:52:57.373Z,82.70
2018-07-16T05:55:26.813Z,84.40
2018-07-16T05:57:56.555Z,84.00
2018-07-16T06:00:26.034Z,81.60
2018-07-16T06:02:56.288Z,80.80
2018-07-16T06:05:25.722Z,79.80
2018-07-16T06:07:55.220Z,79.70
2018-07-16T06:10:24.798Z,78.40
2018-07-16T06:12:54.461Z,77.50
2018-07-16T06:15:23.918Z,74.50
2018-07-16T06:17:53.513Z,74.90
2018-07-16T06:20:22.671Z,75.00
2018-07-16T06:22:52.187Z,73.60
2018-07-16T06:25:21.947Z,72.80
2018-07-16T06:27:52.384Z,72.80
2018-07-16T06:30:21.950Z,72.80
2018-07-16T06:32:51.253Z,72.20
2018-07-16T06:35:20.694Z,72.40
2018-07-16T06:37:50.607Z,70.30
2018-07-16T06:40:20.120Z,72.80
2018-07-16T06:42:49.376Z,71.30
2018-07-16T06:45:18.699Z,70.90
2018-07-16T06:47:47.944Z,68.10
2018-07-16T06:50:17.383Z,65.40
2018-07-16T06:52:46.780Z,63.60
2018-07-16T06:55:16.038Z,64.40
2018-07-16T06:57:45.747Z,64.20
2018-07-16T07:00:15.056Z,62.30
2018-07-16T07:02:44.389Z,62.80
2018-07-16T07:05:14.361Z,63.10
2018-07-16T07:07:43.942Z,62.70
2018-07-16T07:10:14.503Z,62.50
2018-07-16T07:12:43.888Z,63.70
2018-07-16T07:15:14.072Z,65.30
2018-07-16T07:17:44.273Z,64.00
2018-07-16T07:20:14.061Z,62.90
2018-07-16T07:22:43.223Z,64.10
2018-07-16T07:25:12.867Z,63.20
2018-07-16T07:27:42.654Z,63.50
2018-07-16T07:30:12.268Z,61.70
2018-07-16T07:32:41.987Z,61.80
2018-07-16T07:35:11.392Z,62.80
2018-07-16T07:37:40.842Z,60.80
2018-07-16T07:40:10.452Z,59.20
2018-07-16T07:42:39.722Z,58.60
2018-07-16T07:45:09.460Z,59.30
2018-07-16T07:47:39.214Z,59.30
2018-07-16T07:52:38.350Z,58.50
2018-07-16T07:55:08.536Z,59.50
2018-07-16T07:57:38.148Z,58.20
2018-07-16T08:00:07.688Z,58.00
2018-07-16T08:02:37.189Z,58.80
2018-07-16T08:05:06.789Z,58.30
2018-07-16T08:07:36.441Z,58.30
2018-07-16T08:10:05.881Z,57.80
2018-07-16T08:12:35.653Z,58.00
2018-07-16T08:15:06.265Z,58.90
2018-07-16T08:17:35.866Z,58.10
2018-07-16T08:20:05.992Z,58.50
2018-07-16T08:22:35.329Z,58.50
2018-07-16T08:25:05.062Z,58.40
2018-07-16T08:27:34.292Z,56.80
2018-07-16T08:30:03.440Z,57.30
2018-07-16T08:32:33.303Z,56.80
2018-07-16T08:35:02.932Z,56.30
2018-07-16T08:37:32.460Z,55.50
2018-07-16T08:40:01.932Z,56.60
2018-07-16T08:42:31.390Z,56.00
2018-07-16T08:45:00.750Z,55.40
2018-07-16T08:47:30.157Z,55.30
2018-07-16T08:49:59.481Z,53.40
2018-07-16T08:52:28.967Z,54.20
2018-07-16T08:54:58.889Z,53.30
2018-07-16T08:59:57.448Z,51.70
2018-07-16T09:02:26.702Z,50.30
2018-07-16T09:04:56.216Z,49.30
2018-07-16T09:07:25.689Z,51.00
2018-07-16T09:09:55.182Z,49.60
2018-07-16T09:12:24.563Z,50.80
2018-07-16T09:14:54.072Z,48.80
2018-07-16T09:17:23.513Z,49.30
2018-07-16T09:19:53.139Z,48.60
2018-07-16T09:22:22.455Z,49.40
2018-07-16T09:24:52.173Z,47.90
2018-07-16T09:27:21.658Z,48.40
2018-07-16T09:29:50.809Z,48.20
2018-07-16T09:32:20.449Z,48.30
2018-07-16T09:34:50.250Z,48.20
2018-07-16T09:37:19.611Z,48.50
2018-07-16T09:39:49.140Z,48.60
2018-07-16T09:42:18.698Z,48.00
2018-07-16T09:44:48.260Z,47.40
2018-07-16T09:47:17.706Z,48.10
2018-07-16T09:49:47.505Z,47.20
2018-07-16T09:52:16.969Z,46.00
2018-07-16T09:54:46.569Z,47.20
2018-07-16T09:57:15.652Z,46.60
2018-07-16T09:59:51.002Z,46.40
2018-07-16T10:02:20.427Z,46.30
2018-07-16T10:04:49.920Z,47.30
2018-07-16T10:07:19.480Z,47.90
2018-07-16T10:09:48.797Z,45.60
2018-07-16T10:12:18.333Z,46.20
2018-07-16T10:14:47.914Z,46.70
2018-07-16T10:17:17.403Z,46.10
2018-07-16T10:19:46.769Z,47.00
2018-07-16T10:22:15.970Z,46.40
2018-07-16T10:24:46.115Z,46.30
2018-07-16T10:27:15.790Z,46.20
2018-07-16T10:29:45.091Z,45.50
2018-07-16T10:32:14.633Z,46.60
2018-07-16T10:34:44.069Z,45.90
2018-07-16T10:37:13.249Z,46.40
2018-07-16T10:39:43.074Z,45.80
2018-07-16T10:42:12.894Z,45.30
2018-07-16T10:44:42.723Z,46.60
2018-07-16T10:47:12.483Z,45.60
2018-07-16T10:49:41.697Z,45.50
2018-07-16T10:52:11.428Z,44.40
2018-07-16T10:54:41.787Z,45.80
2018-07-16T10:57:11.948Z,45.30
2018-07-16T10:59:42.170Z,47.20
2018-07-16T11:02:12.061Z,47.50
2018-07-16T11:04:41.723Z,45.50
2018-07-16T11:07:11.564Z,44.80
2018-07-16T11:09:41.226Z,45.40
2018-07-16T11:12:10.712Z,43.80
2018-07-16T11:14:39.885Z,45.00
2018-07-16T11:17:09.412Z,44.50
2018-07-16T11:19:38.857Z,45.10
2018-07-16T11:22:08.292Z,45.20
2018-07-16T11:24:37.695Z,44.10
2018-07-16T11:27:07.348Z,43.50
2018-07-16T11:29:36.804Z,43.30
2018-07-16T11:32:06.441Z,44.10
2018-07-16T11:34:36.691Z,43.60
2018-07-16T11:37:06.091Z,42.80
2018-07-16T11:39:35.701Z,42.80
2018-07-16T11:42:05.917Z,43.10
2018-07-16T11:44:35.196Z,43.00
2018-07-16T11:47:04.674Z,43.20
2018-07-16T11:49:34.464Z,41.00
2018-07-16T11:52:03.714Z,43.10
2018-07-16T11:54:33.115Z,41.70
2018-07-16T11:57:02.647Z,41.20
2018-07-16T11:59:32.116Z,42.00
2018-07-16T12:02:01.530Z,42.60
2018-07-16T12:04:30.640Z,42.60
2018-07-16T12:07:00.030Z,41.50
2018-07-16T12:09:29.643Z,41.90
2018-07-16T12:11:59.390Z,41.70
2018-07-16T12:14:29.063Z,42.20
2018-07-16T12:16:58.914Z,41.50
2018-07-16T12:19:28.228Z,42.30
2018-07-16T12:21:57.371Z,43.10
2018-07-16T12:24:26.659Z,44.30
2018-07-16T12:26:56.156Z,43.90
2018-07-16T12:29:25.928Z,42.90
2018-07-16T12:31:55.184Z,43.40
2018-07-16T12:34:24.702Z,43.30
2018-07-16T12:36:54.160Z,41.40
2018-07-16T12:39:23.831Z,42.90
2018-07-16T12:41:53.987Z,42.30
2018-07-16T12:44:23.867Z,42.30
2018-07-16T12:46:53.229Z,41.70
2018-07-16T12:49:23.090Z,41.40
2018-07-16T12:51:52.566Z,41.20
2018-07-16T12:54:21.899Z,41.20
2018-07-16T12:56:51.603Z,42.60
2018-07-16T12:59:21.370Z,41.90
2018-07-16T13:01:50.828Z,41.10
2018-07-16T13:04:20.492Z,41.70
2018-07-16T13:06:49.933Z,43.20
2018-07-16T13:09:19.694Z,43.00
2018-07-16T13:11:49.161Z,43.00
2018-07-16T13:14:18.604Z,43.20
2018-07-16T13:16:48.262Z,42.60
2018-07-16T13:19:17.774Z,42.90
2018-07-16T13:21:47.157Z,42.60
2018-07-16T13:24:16.255Z,44.20
2018-07-16T13:26:45.967Z,44.20
2018-07-16T13:29:15.335Z,44.00
2018-07-16T13:31:44.780Z,44.10
2018-07-16T13:34:14.141Z,44.50
2018-07-16T13:36:43.235Z,43.00
2018-07-16T13:39:12.899Z,43.40
2018-07-16T13:41:42.632Z,42.50
2018-07-16T13:44:12.214Z,42.30
2018-07-16T13:46:41.750Z,42.60
2018-07-16T13:49:11.495Z,42.40
2018-07-16T13:51:40.974Z,43.00
2018-07-16T13:54:10.385Z,44.30
2018-07-16T13:56:39.576Z,44.10
2018-07-16T13:59:09.171Z,43.70
2018-07-16T14:01:38.492Z,43.90
2018-07-16T14:04:07.916Z,44.20
2018-07-16T14:06:37.246Z,43.40
2018-07-16T14:09:08.522Z,43.20
2018-07-16T14:11:38.203Z,42.30
2018-07-16T14:14:07.975Z,43.40
2018-07-16T14:16:37.538Z,43.10
2018-07-16T14:19:06.900Z,41.90
2018-07-16T14:21:36.925Z,42.60
2018-07-16T14:24:06.584Z,42.30
2018-07-16T14:26:36.058Z,42.10
2018-07-16T14:29:05.239Z,42.70
2018-07-16T14:31:34.753Z,42.30
2018-07-16T14:34:05.213Z,42.20
2018-07-16T14:36:35.019Z,42.70
2018-07-16T14:39:06.252Z,42.10
2018-07-16T14:41:35.755Z,42.10
2018-07-16T14:44:05.348Z,42.60
2018-07-16T14:46:35.042Z,42.20
2018-07-16T14:49:04.525Z,41.50
2018-07-16T14:51:34.100Z,41.70
2018-07-16T14:54:03.592Z,41.70
2018-07-16T14:56:33.299Z,42.00
2018-07-16T14:59:02.871Z,42.40
2018-07-16T15:01:32.408Z,42.00
2018-07-16T15:04:01.830Z,42.10
2018-07-16T15:06:31.354Z,42.30
2018-07-16T15:09:00.929Z,42.40
2018-07-16T15:11:33.424Z,42.20
2018-07-16T15:16:31.631Z,41.90
2018-07-16T15:19:01.394Z,41.70
2018-07-16T15:21:31.038Z,42.00
2018-07-16T15:24:00.301Z,42.00
2018-07-16T15:26:29.981Z,41.70
2018-07-16T15:28:59.267Z,42.60
2018-07-16T15:31:29.488Z,42.70
2018-07-16T15:33:58.746Z,42.50
2018-07-16T15:36:28.147Z,42.80
2018-07-16T15:38:57.849Z,42.80
2018-07-16T15:41:27.874Z,43.00
2018-07-16T15:43:57.401Z,42.60
2018-07-16T15:46:26.850Z,42.80
2018-07-16T15:48:56.744Z,43.20
2018-07-16T15:51:25.950Z,43.20
2018-07-16T15:53:55.360Z,43.30
2018-07-16T15:56:24.836Z,43.70
2018-07-16T15:58:54.639Z,43.20
2018-07-16T16:01:23.878Z,43.30
2018-07-16T16:03:53.709Z,43.40
2018-07-16T16:06:23.296Z,43.50
2018-07-16T16:08:52.845Z,43.50
2018-07-16T16:11:23.099Z,43.30
2018-07-16T16:13:52.957Z,44.10
2018-07-16T16:16:22.640Z,45.20
2018-07-16T16:18:52.841Z,44.80
2018-07-16T16:21:23.082Z,46.40
2018-07-16T16:23:52.540Z,46.40
2018-07-16T16:26:21.937Z,47.40
2018-07-16T16:28:51.064Z,48.40
2018-07-16T16:31:20.422Z,48.20
2018-07-16T16:33:50.012Z,46.70
2018-07-16T16:36:19.357Z,46.40
2018-07-16T16:38:48.692Z,46.30
2018-07-16T16:41:18.330Z,46.30
2018-07-16T16:43:47.959Z,46.30
2018-07-16T16:46:17.273Z,46.30
2018-07-16T16:48:46.357Z,46.20
2018-07-16T16:51:15.736Z,46.40
2018-07-16T16:53:45.282Z,46.50
2018-07-16T16:56:14.935Z,46.30
2018-07-16T16:58:44.755Z,47.40
2018-07-16T17:01:14.272Z,46.90
2018-07-16T17:03:43.666Z,46.90
2018-07-16T17:06:13.216Z,46.90
2018-07-16T17:08:43.169Z,46.90
2018-07-16T17:11:12.758Z,47.10
2018-07-16T17:13:42.366Z,46.80
2018-07-16T17:16:12.364Z,46.70
2018-07-16T17:18:42.333Z,47.30
2018-07-16T17:21:12.553Z,48.00
2018-07-16T17:23:42.605Z,47.50
2018-07-16T17:26:12.178Z,47.50
2018-07-16T17:28:41.714Z,47.10
2018-07-16T17:31:11.338Z,48.10
2018-07-16T17:33:40.916Z,48.60
2018-07-16T17:36:10.753Z,48.70
2018-07-16T17:38:40.263Z,48.60
2018-07-16T17:41:09.923Z,48.30
2018-07-16T17:43:39.703Z,48.50
2018-07-16T17:46:09.170Z,48.60
2018-07-16T17:48:38.845Z,48.40
2018-07-16T17:51:09.358Z,48.80
2018-07-16T17:53:39.091Z,49.00
2018-07-16T17:56:08.402Z,48.90
2018-07-16T17:58:38.151Z,49.10
2018-07-16T18:01:08.313Z,49.30
2018-07-16T18:03:37.737Z,50.00
2018-07-16T18:06:07.460Z,50.20
2018-07-16T18:08:37.251Z,50.60
2018-07-16T18:11:07.272Z,50.70
2018-07-16T18:13:36.962Z,51.10
2018-07-16T18:16:06.487Z,51.60
2018-07-16T18:18:35.995Z,51.80
2018-07-16T18:21:05.822Z,51.80
2018-07-16T18:23:35.599Z,51.50
2018-07-16T18:26:05.213Z,51.50
2018-07-16T18:33:33.398Z,53.30
2018-07-16T18:36:03.083Z,54.50
2018-07-16T18:38:32.614Z,52.90
2018-07-16T18:41:02.257Z,53.80
2018-07-16T18:43:31.720Z,53.50
2018-07-16T18:46:01.306Z,53.80
2018-07-16T18:48:30.485Z,54.30
2018-07-16T18:51:00.146Z,54.30
2018-07-16T18:53:29.832Z,54.40
2018-07-16T18:55:59.445Z,55.00
2018-07-16T18:58:29.115Z,55.10
2018-07-16T19:00:58.868Z,54.70
2018-07-16T19:03:28.883Z,55.20
2018-07-16T19:05:58.398Z,55.10
2018-07-16T19:08:27.696Z,55.30
2018-07-16T19:10:57.031Z,55.90
2018-07-16T19:13:26.600Z,55.90
2018-07-16T19:15:55.986Z,56.10
2018-07-16T19:18:25.532Z,56.00
2018-07-16T19:20:54.954Z,56.80
2018-07-16T19:23:24.594Z,57.10
2018-07-16T19:25:54.143Z,57.60
2018-07-16T19:30:52.404Z,57.50
2018-07-16T19:33:22.011Z,57.30
2018-07-16T19:35:51.259Z,58.00
2018-07-16T19:38:21.122Z,58.40
2018-07-16T19:40:50.867Z,58.60
2018-07-16T19:43:20.715Z,58.60
2018-07-16T19:45:50.433Z,58.80
2018-07-16T19:48:19.645Z,59.30
2018-07-16T19:50:49.305Z,59.30
2018-07-16T19:55:47.509Z,59.60
2018-07-16T19:58:17.212Z,59.70
2018-07-16T20:00:46.893Z,60.50
2018-07-16T20:03:16.375Z,60.90
2018-07-16T20:05:46.540Z,62.30
2018-07-16T20:08:16.948Z,62.00
2018-07-16T20:13:15.387Z,68.10
2018-07-16T20:15:45.280Z,65.20
2018-07-16T20:18:14.362Z,65.60
2018-07-16T20:20:55.223Z,64.40
2018-07-16T20:23:24.657Z,67.80
2018-07-16T20:25:55.738Z,67.70
2018-07-16T20:28:25.428Z,66.60
2018-07-16T20:30:55.171Z,68.10
2018-07-16T20:33:24.865Z,70.20
2018-07-16T20:35:54.162Z,73.00
2018-07-16T20:38:24.533Z,73.00
2018-07-16T20:40:54.022Z,73.80
2018-07-16T20:43:23.176Z,71.40
2018-07-16T20:45:53.069Z,71.90
2018-07-16T20:48:22.859Z,72.40
2018-07-16T20:50:52.547Z,74.20
2018-07-16T20:53:22.042Z,73.60
2018-07-16T20:55:51.384Z,76.20
2018-07-16T20:58:21.140Z,73.70
2018-07-16T21:00:50.779Z,74.50
2018-07-16T21:05:49.648Z,73.70
2018-07-16T21:08:18.942Z,75.70
2018-07-16T21:10:48.459Z,79.00
2018-07-16T21:13:18.132Z,80.00
2018-07-16T21:15:47.261Z,83.20
2018-07-16T21:18:16.467Z,79.90
2018-07-16T21:20:46.131Z,83.90
2018-07-16T21:23:15.602Z,85.70
2018-07-16T21:25:45.145Z,91.40
2018-07-16T21:28:14.637Z,82.80
2018-07-16T21:30:44.548Z,86.70
2018-07-16T21:33:14.361Z,85.70
2018-07-16T21:35:43.878Z,86.20
2018-07-16T21:38:13.058Z,85.80
2018-07-16T21:40:42.616Z,79.40
2018-07-16T21:43:12.354Z,84.90
2018-07-16T21:45:41.860Z,88.10
2018-07-16T21:53:09.876Z,89.10
2018-07-16T21:55:39.506Z,92.40
2018-07-16T21:58:08.821Z,90.20
2018-07-16T22:00:38.612Z,94.40
2018-07-16T22:03:08.338Z,91.70
2018-07-16T22:05:37.859Z,89.10
2018-07-16T22:08:07.269Z,92.70
2018-07-16T22:10:36.509Z,94.90
2018-07-16T22:13:06.093Z,93.30
2018-07-16T22:15:35.439Z,93.90
2018-07-16T22:18:04.980Z,94.70
2018-07-16T22:20:34.488Z,96.40
2018-07-16T22:23:03.764Z,93.30
2018-07-16T22:25:33.209Z,94.40
2018-07-16T22:28:02.710Z,92.70
2018-07-16T22:30:32.237Z,96.90
2018-07-16T22:33:01.690Z,95.60
2018-07-16T22:35:31.270Z,96.30
2018-07-16T22:38:00.651Z,95.80
2018-07-16T22:40:30.053Z,94.10
2018-07-16T22:42:59.641Z,94.80
2018-07-16T22:45:29.201Z,97.70
2018-07-16T22:47:58.867Z,96.20
2018-07-16T22:50:28.806Z,95.70
2018-07-16T22:52:58.639Z,95.10
2018-07-16T22:55:27.928Z,95.90
2018-07-16T22:57:57.335Z,95.30
2018-07-16T23:00:26.804Z,96.10
2018-07-16T23:02:56.604Z,96.60
2018-07-16T23:05:25.901Z,98.00
2018-07-16T23:07:55.161Z,96.00
2018-07-16T23:10:25.575Z,94.80
2018-07-16T23:12:55.241Z,94.80
2018-07-16T23:15:24.520Z,94.30
2018-07-16T23:17:54.003Z,94.50
2018-07-16T23:20:23.683Z,97.80
2018-07-16T23:22:56.466Z,98.30
2018-07-16T23:25:25.971Z,97.50
2018-07-16T23:27:55.363Z,96.30
2018-07-16T23:30:24.527Z,98.60
2018-07-16T23:32:54.012Z,98.00
2018-07-16T23:35:23.990Z,97.90
2018-07-16T23:37:53.171Z,99.00
2018-07-16T23:40:23.322Z,98.80
2018-07-16T23:42:54.157Z,96.70
2018-07-16T23:45:23.535Z,97.20
2018-07-16T23:47:53.100Z,94.20
2018-07-16T23:50:22.754Z,95.40
2018-07-16T23:52:52.027Z,96.10
2018-07-16T23:55:21.301Z,99.90
2018-07-16T23:57:50.913Z,99.90
